createdAt,value
2022-08-26T00:04:05.074Z,23.5
2022-08-26T00:09:07.669Z,24.9
2022-08-26T00:14:04.056Z,24.9
2022-08-26T00:24:19.732Z,24.4
2022-08-26T00:29:07.696Z,24.4
2022-08-26T00:34:04.040Z,24.4
2022-08-26T00:39:04.045Z,25.3
2022-08-26T00:44:04.028Z,25.3
2022-08-26T00:49:04.024Z,24.5
2022-08-26T00:54:05.407Z,25
2022-08-26T00:59:05.111Z,25
2022-08-26T01:04:04.032Z,25.3
2022-08-26T01:09:04.079Z,25.7
2022-08-26T01:14:04.073Z,25
2022-08-26T01:19:04.104Z,25
2022-08-26T01:24:04.042Z,25.7
2022-08-26T01:29:04.043Z,26.1
2022-08-26T01:34:04.106Z,26.1
2022-08-26T01:39:07.200Z,26.3
2022-08-26T01:44:04.087Z,26.8
2022-08-26T01:49:07.162Z,27.3
2022-08-26T01:54:04.112Z,27.5
2022-08-26T01:59:04.106Z,27.3
2022-08-26T02:04:04.108Z,27.5
2022-08-26T02:09:04.113Z,28.8
2022-08-26T02:14:04.118Z,31.5
2022-08-26T02:19:04.091Z,31.5
2022-08-26T02:24:04.085Z,31.5
2022-08-26T02:29:04.069Z,31.5
2022-08-26T02:34:04.123Z,31.5
2022-08-26T02:39:05.136Z,31.5
2022-08-26T02:44:04.092Z,31.3
2022-08-26T02:49:04.115Z,31.1
2022-08-26T02:54:05.332Z,31.1
2022-08-26T02:59:04.444Z,31
2022-08-26T03:04:04.113Z,31
2022-08-26T03:09:04.111Z,31
2022-08-26T03:14:04.098Z,28.7
2022-08-26T03:19:04.086Z,28.7
2022-08-26T03:24:05.101Z,29.5
2022-08-26T03:29:04.149Z,29.2
2022-08-26T03:34:04.118Z,29.5
2022-08-26T03:39:04.138Z,31.1
2022-08-26T03:44:04.170Z,29.5
2022-08-26T03:49:04.133Z,30.3
2022-08-26T03:54:08.188Z,31.1
2022-08-26T03:59:09.713Z,31.4
2022-08-26T04:04:04.330Z,32.4
2022-08-26T04:09:05.188Z,32.1
2022-08-26T04:14:04.164Z,31.4
2022-08-26T04:19:04.104Z,31.4
2022-08-26T04:24:04.163Z,32.1
2022-08-26T04:29:04.117Z,32.1
2022-08-26T04:34:04.146Z,32.1
2022-08-26T04:39:04.244Z,32.1
2022-08-26T04:44:04.131Z,32.1
2022-08-26T04:49:04.195Z,33.2
2022-08-26T04:54:05.136Z,35.9
2022-08-26T04:59:14.978Z,36.3
2022-08-26T05:04:08.005Z,36.3
2022-08-26T05:09:04.120Z,36.3
2022-08-26T05:14:04.163Z,35.8
2022-08-26T05:19:04.159Z,35.8
2022-08-26T05:24:04.160Z,33.6
2022-08-26T05:29:04.138Z,31.4
2022-08-26T05:34:04.189Z,31.4
2022-08-26T05:39:04.171Z,29.7
2022-08-26T05:44:05.188Z,28.8
2022-08-26T05:49:04.399Z,28.1
2022-08-26T05:54:04.148Z,28.1
2022-08-26T05:59:15.908Z,27.4
2022-08-26T06:04:04.147Z,28.1
2022-08-26T06:09:04.132Z,28.8
2022-08-26T06:14:05.185Z,31.1
2022-08-26T06:19:10.294Z,31.1
2022-08-26T06:24:04.162Z,31.2
2022-08-26T06:29:05.146Z,31.2
2022-08-26T06:34:10.474Z,31.2
2022-08-26T06:39:04.165Z,31.1
2022-08-26T06:44:04.203Z,31.1
2022-08-26T06:49:04.182Z,30.4
2022-08-26T06:54:04.159Z,30.4
2022-08-26T06:59:08.603Z,27.1
2022-08-26T07:04:05.219Z,26.9
2022-08-26T07:09:04.404Z,27.1
2022-08-26T07:14:04.442Z,30.4
2022-08-26T07:19:10.666Z,30.1
2022-08-26T07:24:04.192Z,26.9
2022-08-26T07:29:04.694Z,30.1
2022-08-26T07:34:04.194Z,30.1
2022-08-26T07:39:04.162Z,30.1
2022-08-26T07:44:05.454Z,30.1
2022-08-26T07:49:04.288Z,28.3
2022-08-26T07:54:04.179Z,27.9
2022-08-26T07:59:13.379Z,27.9
2022-08-26T08:04:04.208Z,27.9
2022-08-26T08:09:05.231Z,27.9
2022-08-26T08:14:08.368Z,27.9
2022-08-26T08:19:04.244Z,27.7
2022-08-26T08:24:04.218Z,27.9
2022-08-26T08:29:05.214Z,28.5
2022-08-26T08:34:04.211Z,28.5
2022-08-26T08:39:04.229Z,28.5
2022-08-26T08:44:04.502Z,28.5
2022-08-26T08:49:04.229Z,28.1
2022-08-26T08:54:05.203Z,28.1
2022-08-26T08:59:06.346Z,26.5
2022-08-26T09:04:04.208Z,25
2022-08-26T09:09:04.234Z,24.8
2022-08-26T09:14:04.183Z,24.7
2022-08-26T09:19:04.332Z,23.2
2022-08-26T09:24:04.244Z,23.2
2022-08-26T09:29:04.199Z,23.2
2022-08-26T09:34:04.249Z,22.9
2022-08-26T09:39:04.199Z,22.9
2022-08-26T09:44:04.238Z,21.9
2022-08-26T09:49:05.216Z,22.3
2022-08-26T09:54:08.049Z,22.3
2022-08-26T09:59:12.371Z,22.3
2022-08-26T10:04:04.297Z,22.3
2022-08-26T10:09:09.049Z,20.2
2022-08-26T10:21:05.598Z,17.8
2022-08-26T10:24:05.313Z,18.2
2022-08-26T10:29:04.219Z,17.8
2022-08-26T10:34:04.232Z,18.2
2022-08-26T10:39:04.242Z,18.6
2022-08-26T10:44:04.232Z,19.85
2022-08-26T10:49:07.276Z,18.6
2022-08-26T10:54:04.246Z,18.6
2022-08-26T10:59:05.289Z,16.8
2022-08-26T11:04:05.272Z,16.8
2022-08-26T11:09:04.253Z,16.8
2022-08-26T11:14:04.518Z,16.2
2022-08-26T11:19:04.263Z,16.2
2022-08-26T11:24:07.307Z,16.2
2022-08-26T11:29:04.303Z,16.2
2022-08-26T11:34:05.274Z,16.2
2022-08-26T11:39:04.283Z,15.9
2022-08-26T11:44:04.244Z,14.5
2022-08-26T11:49:05.266Z,14.5
2022-08-26T11:54:05.268Z,14.2
2022-08-26T11:59:04.273Z,14.2
2022-08-26T12:04:04.405Z,14.2
2022-08-26T12:09:07.324Z,15.9
2022-08-26T12:14:04.289Z,17.3
2022-08-26T12:19:04.333Z,17.5
2022-08-26T12:24:04.334Z,17.8
2022-08-26T12:29:08.486Z,18
2022-08-26T12:34:04.310Z,18
2022-08-26T12:39:04.291Z,18
2022-08-26T12:44:04.334Z,17.8
2022-08-26T12:49:04.306Z,17.8
2022-08-26T12:54:04.373Z,18.7
2022-08-26T12:59:04.319Z,19
2022-08-26T13:04:04.327Z,18.7
2022-08-26T13:09:04.549Z,18.7
2022-08-26T13:14:07.537Z,16.7
2022-08-26T13:19:04.349Z,16.7
2022-08-26T13:24:04.321Z,16.6
2022-08-26T13:29:10.126Z,16.6
2022-08-26T13:34:04.284Z,16.2
2022-08-26T13:39:04.414Z,16.2
2022-08-26T13:44:04.466Z,16.2
2022-08-26T13:49:04.368Z,15.1
2022-08-26T13:54:04.343Z,15.1
2022-08-26T13:59:04.360Z,15.1
2022-08-26T14:04:06.267Z,15.1
2022-08-26T14:09:04.751Z,14.6
2022-08-26T14:14:04.377Z,14.4
2022-08-26T14:19:04.628Z,14.4
2022-08-26T14:24:04.355Z,14.1
2022-08-26T14:29:04.396Z,13.4
2022-08-26T14:34:04.359Z,10.3
2022-08-26T14:39:04.549Z,10.2
2022-08-26T14:44:04.366Z,10.2
2022-08-26T14:49:10.509Z,10.2
2022-08-26T14:54:04.383Z,10.2
2022-08-26T14:59:04.335Z,11.5
2022-08-26T15:04:04.373Z,13
2022-08-26T15:09:04.571Z,14.7
2022-08-26T15:14:04.351Z,15
2022-08-26T15:19:04.311Z,17.5
2022-08-26T15:24:04.372Z,17.5
2022-08-26T15:29:07.376Z,18
2022-08-26T15:34:04.379Z,18.1
2022-08-26T15:39:04.470Z,18.1
2022-08-26T15:44:04.399Z,18.7
2022-08-26T15:49:04.476Z,18.7
2022-08-26T15:54:05.636Z,18.1
2022-08-26T15:59:04.377Z,18.1
2022-08-26T16:04:04.427Z,17.1
2022-08-26T16:09:04.407Z,17.1
2022-08-26T16:14:04.429Z,17.1
2022-08-26T16:19:14.264Z,17.1
2022-08-26T16:24:04.572Z,16.7
2022-08-26T16:29:04.877Z,16.7
2022-08-26T16:34:04.397Z,17.6
2022-08-26T16:39:04.408Z,17.9
2022-08-26T16:44:04.953Z,20.6
2022-08-26T16:49:04.484Z,19.6
2022-08-26T16:54:07.608Z,19.6
2022-08-26T16:59:04.544Z,21.5
2022-08-26T17:04:05.230Z,23.4
2022-08-26T17:09:04.418Z,23.6
2022-08-26T17:14:04.539Z,29.3
2022-08-26T17:19:04.510Z,30.2
2022-08-26T17:24:04.452Z,30.2
2022-08-26T17:29:04.378Z,30.2
2022-08-26T17:34:04.405Z,30.2
2022-08-26T17:39:04.581Z,29
2022-08-26T17:44:04.509Z,29
2022-08-26T17:49:04.387Z,29
2022-08-26T17:54:04.489Z,28.9
2022-08-26T17:59:05.430Z,28.6
2022-08-26T18:04:05.480Z,28.9
2022-08-26T18:09:04.470Z,29.6
2022-08-26T18:14:04.440Z,31.8
2022-08-26T18:19:05.509Z,34.1
2022-08-26T18:24:04.418Z,35.1
2022-08-26T18:29:04.455Z,38.5
2022-08-26T18:34:06.675Z,42.6
2022-08-26T18:39:04.549Z,47.4
2022-08-26T18:44:04.471Z,48.3
2022-08-26T18:49:04.444Z,49.6
2022-08-26T18:54:04.600Z,50.2
2022-08-26T18:59:04.423Z,50.5
2022-08-26T19:04:04.437Z,49.6
2022-08-26T19:09:05.434Z,48.3
2022-08-26T19:14:04.443Z,48.3
2022-08-26T19:19:04.785Z,44.9
2022-08-26T19:24:04.467Z,38.2
2022-08-26T19:29:04.433Z,38.2
2022-08-26T19:34:04.508Z,37.2
2022-08-26T19:39:04.739Z,37.2
2022-08-26T19:44:04.576Z,37.6
2022-08-26T19:49:04.443Z,38.2
2022-08-26T19:54:04.475Z,41.1
2022-08-26T19:59:04.436Z,42.5
2022-08-26T20:04:05.008Z,44.3
2022-08-26T20:09:04.467Z,45.2
2022-08-26T20:14:04.468Z,45.2
2022-08-26T20:19:04.416Z,44.3
2022-08-26T20:24:05.845Z,44.3
2022-08-26T20:29:04.741Z,44.3
2022-08-26T20:34:04.436Z,44.3
2022-08-26T20:39:04.471Z,45.4
2022-08-26T20:44:04.443Z,45.4
2022-08-26T20:49:07.608Z,56.1
2022-08-26T20:54:04.459Z,57.7
2022-08-26T20:59:04.474Z,61.9
2022-08-26T21:04:04.460Z,68.9
2022-08-26T21:09:04.539Z,82.7
2022-08-26T21:14:15.823Z,116.8
2022-08-26T21:19:04.542Z,116.8
2022-08-26T21:24:04.519Z,116.8
2022-08-26T21:29:04.552Z,116.8
2022-08-26T21:34:04.513Z,96.5
2022-08-26T21:39:11.641Z,76.1
2022-08-26T21:44:04.537Z,59.8
2022-08-26T21:49:04.515Z,59.3
2022-08-26T21:54:10.675Z,58.2
2022-08-26T21:59:04.548Z,45.1
2022-08-26T22:04:04.756Z,40
2022-08-26T22:09:04.488Z,36.2
2022-08-26T22:14:04.595Z,35.2
2022-08-26T22:24:04.543Z,35.2
2022-08-26T22:29:04.493Z,33.5
2022-08-26T22:34:04.508Z,35.2
2022-08-26T22:39:04.538Z,34.5
2022-08-26T22:44:04.492Z,33.5
2022-08-26T22:49:05.094Z,33.6
2022-08-26T22:54:04.490Z,33.6
2022-08-26T22:59:04.528Z,33.6
2022-08-26T23:04:04.510Z,34.5
2022-08-26T23:09:05.499Z,34.5
2022-08-26T23:14:07.543Z,34.7
2022-08-26T23:19:04.530Z,39.3
2022-08-26T23:24:04.563Z,40
2022-08-26T23:29:04.605Z,40.8
2022-08-26T23:34:04.518Z,40.8
2022-08-26T23:39:04.550Z,41.6
2022-08-26T23:44:04.499Z,41.6
2022-08-26T23:49:04.529Z,45.9
2022-08-26T23:54:04.785Z,50.2
2022-08-26T23:59:04.508Z,50.7
